createdAt,value
2018-04-23T00:00:46.368Z,0
2018-04-23T00:01:55.843Z,0
2018-04-23T00:03:05.314Z,0
2018-04-23T00:04:15.055Z,0
2018-04-23T00:05:24.793Z,0
2018-04-23T00:06:34.797Z,0
2018-04-23T00:07:44.538Z,0
2018-04-23T00:08:54.577Z,0
2018-04-23T00:10:04.582Z,0
2018-04-23T00:11:14.321Z,0
2018-04-23T00:12:24.326Z,0
2018-04-23T00:13:34.061Z,0
2018-04-23T00:14:43.801Z,0
2018-04-23T00:15:53.804Z,0
2018-04-23T00:17:03.550Z,0
2018-04-23T00:18:13.282Z,0
2018-04-23T00:19:22.753Z,0
2018-04-23T00:20:32.780Z,0
2018-04-23T00:21:42.788Z,0
2018-04-23T00:22:52.524Z,0
2018-04-23T00:24:02.530Z,0
2018-04-23T00:25:12.528Z,0
2018-04-23T00:26:22.534Z,0
2018-04-23T00:27:31.998Z,0
2018-04-23T00:28:41.996Z,0
2018-04-23T00:29:52.007Z,0
2018-04-23T00:31:02.010Z,0
2018-04-23T00:32:11.477Z,0
2018-04-23T00:33:21.212Z,0
2018-04-23T00:34:30.954Z,0
2018-04-23T00:35:40.960Z,0
2018-04-23T00:36:50.986Z,0
2018-04-23T00:38:00.720Z,0
2018-04-23T00:39:10.731Z,0
2018-04-23T00:40:20.742Z,0
2018-04-23T00:41:30.476Z,0
2018-04-23T00:42:40.485Z,0
2018-04-23T00:43:50.224Z,0
2018-04-23T00:44:59.697Z,0
2018-04-23T00:46:09.704Z,0
2018-04-23T00:47:19.438Z,0
2018-04-23T00:48:29.183Z,0
2018-04-23T00:49:39.241Z,0
2018-04-23T00:50:49.248Z,0
2018-04-23T00:51:58.983Z,0
2018-04-23T00:53:08.726Z,0
2018-04-23T00:54:18.465Z,0
2018-04-23T00:55:28.468Z,0
2018-04-23T00:56:38.480Z,0
2018-04-23T00:57:48.220Z,0
2018-04-23T00:58:57.686Z,0
2018-04-23T01:00:07.697Z,0
2018-04-23T01:01:17.175Z,0
2018-04-23T01:02:26.640Z,0
2018-04-23T01:03:36.376Z,0
2018-04-23T01:04:46.121Z,0
2018-04-23T01:05:56.143Z,0
2018-04-23T01:07:05.615Z,0
2018-04-23T01:08:15.088Z,0
2018-04-23T01:09:25.090Z,0
2018-04-23T01:10:34.557Z,0
2018-04-23T01:11:44.296Z,0
2018-04-23T01:12:54.036Z,0
2018-04-23T01:14:04.030Z,0
2018-04-23T01:15:14.049Z,0
2018-04-23T01:16:24.052Z,0
2018-04-23T01:17:33.788Z,0
2018-04-23T01:18:43.797Z,0
2018-04-23T01:19:53.544Z,0
2018-04-23T01:21:03.543Z,0
2018-04-23T01:22:13.018Z,0
2018-04-23T01:23:23.034Z,0
2018-04-23T01:24:32.769Z,0
2018-04-23T01:25:42.781Z,0
2018-04-23T01:26:52.785Z,0
2018-04-23T01:28:02.807Z,0
2018-04-23T01:29:12.549Z,0
2018-04-23T01:30:22.287Z,0
2018-04-23T01:31:32.022Z,0
2018-04-23T01:32:42.025Z,0
2018-04-23T01:33:51.229Z,0
2018-04-23T01:35:01.223Z,0
2018-04-23T01:36:10.970Z,0
2018-04-23T01:37:20.972Z,0
2018-04-23T01:38:30.982Z,0
2018-04-23T01:39:40.726Z,0
2018-04-23T01:40:49.676Z,0
2018-04-23T01:41:59.676Z,0
2018-04-23T01:43:09.693Z,0
2018-04-23T01:44:19.430Z,0
2018-04-23T01:45:29.427Z,0
2018-04-23T01:46:39.434Z,0
2018-04-23T01:47:48.702Z,0
2018-04-23T01:48:58.174Z,0
2018-04-23T01:50:07.705Z,0
2018-04-23T01:51:17.719Z,0
2018-04-23T01:52:27.730Z,0
2018-04-23T01:53:36.929Z,0
2018-04-23T01:54:46.665Z,0
2018-04-23T01:55:56.682Z,0
2018-04-23T01:57:06.431Z,0
2018-04-23T01:58:16.168Z,0
2018-04-23T01:59:26.269Z,0
2018-04-23T02:00:36.001Z,0
2018-04-23T02:01:45.468Z,0
2018-04-23T02:02:55.492Z,0
2018-04-23T02:04:05.236Z,0
2018-04-23T02:05:14.707Z,0
2018-04-23T02:06:24.442Z,0
2018-04-23T02:07:34.476Z,0
2018-04-23T02:08:44.478Z,0
2018-04-23T02:09:54.486Z,0
2018-04-23T02:11:04.226Z,0
2018-04-23T02:12:13.704Z,0
2018-04-23T02:13:23.434Z,0
2018-04-23T02:14:33.173Z,0
2018-04-23T02:15:43.171Z,0
2018-04-23T02:16:53.166Z,0
2018-04-23T02:18:02.644Z,0
2018-04-23T02:19:12.390Z,0
2018-04-23T02:20:22.132Z,0
2018-04-23T02:21:32.147Z,0
2018-04-23T02:22:41.890Z,0
2018-04-23T02:23:51.359Z,0
2018-04-23T02:25:00.847Z,0
2018-04-23T02:26:10.850Z,0
2018-04-23T02:27:20.863Z,0
2018-04-23T02:28:30.625Z,0
2018-04-23T02:29:40.634Z,0
2018-04-23T02:30:50.706Z,0
2018-04-23T02:32:00.494Z,0
2018-04-23T02:33:09.964Z,0
2018-04-23T02:34:19.708Z,0
2018-04-23T02:35:29.463Z,0
2018-04-23T02:36:39.203Z,0
2018-04-23T02:37:49.208Z,0
2018-04-23T02:38:58.944Z,0
2018-04-23T02:40:08.411Z,0
2018-04-23T02:41:18.151Z,0
2018-04-23T02:42:27.899Z,0
2018-04-23T02:43:37.901Z,0
2018-04-23T02:44:47.108Z,0
2018-04-23T02:45:57.116Z,0
2018-04-23T02:47:06.883Z,0
2018-04-23T02:48:16.899Z,0
2018-04-23T02:49:26.660Z,0
2018-04-23T02:50:36.412Z,0
2018-04-23T02:51:46.425Z,0
2018-04-23T02:52:56.432Z,0
2018-04-23T02:54:06.459Z,0
2018-04-23T02:55:16.462Z,0
2018-04-23T02:56:26.480Z,0
2018-04-23T02:57:36.499Z,0
2018-04-23T02:58:46.512Z,0
2018-04-23T02:59:56.381Z,4
2018-04-23T03:03:38.726Z,0
2018-04-23T03:04:48.735Z,4
2018-04-23T03:05:58.580Z,4
2018-04-23T03:07:08.329Z,4
2018-04-23T03:08:18.073Z,4
2018-04-23T03:09:28.083Z,4
2018-04-23T03:10:37.819Z,8
2018-04-23T03:11:47.832Z,4
2018-04-23T03:12:57.838Z,8
2018-04-23T03:14:07.856Z,12
2018-04-23T03:15:17.866Z,12
2018-04-23T03:16:27.608Z,16
2018-04-23T03:17:37.358Z,20
2018-04-23T03:18:47.106Z,28
2018-04-23T03:19:57.112Z,28
2018-04-23T03:21:07.116Z,32
2018-04-23T03:22:16.854Z,36
2018-04-23T03:23:26.590Z,40
2018-04-23T03:24:36.591Z,40
2018-04-23T03:25:46.603Z,44
2018-04-23T03:26:56.607Z,52
2018-04-23T03:28:06.350Z,56
2018-04-23T03:29:16.373Z,60
2018-04-23T03:30:26.391Z,56
2018-04-23T03:31:35.862Z,60
2018-04-23T03:32:45.329Z,68
2018-04-23T03:33:55.331Z,76
2018-04-23T03:35:05.067Z,84
2018-04-23T03:36:13.999Z,92
2018-04-23T03:37:23.739Z,100
2018-04-23T03:38:33.475Z,108
2018-04-23T03:39:42.673Z,108
2018-04-23T03:40:52.670Z,112
2018-04-23T03:42:02.409Z,112
2018-04-23T03:43:12.139Z,108
2018-04-23T03:44:22.213Z,96
2018-04-23T03:45:32.345Z,96
2018-04-23T03:46:42.082Z,112
2018-04-23T03:47:51.825Z,128
2018-04-23T03:49:01.824Z,148
2018-04-23T03:50:11.562Z,168
2018-04-23T03:51:21.567Z,188
2018-04-23T03:52:31.031Z,196
2018-04-23T03:53:40.503Z,204
2018-04-23T03:54:50.239Z,216
2018-04-23T03:56:00.026Z,208
2018-04-23T03:57:09.765Z,220
2018-04-23T03:58:19.498Z,244
2018-04-23T03:59:29.231Z,280
2018-04-23T04:00:39.226Z,312
2018-04-23T04:01:49.233Z,336
2018-04-23T04:02:58.972Z,352
2018-04-23T04:04:08.710Z,352
2018-04-23T04:05:18.445Z,368
2018-04-23T04:06:28.445Z,376
2018-04-23T04:07:37.919Z,356
2018-04-23T04:08:47.388Z,332
2018-04-23T04:09:57.398Z,348
2018-04-23T04:11:07.394Z,396
2018-04-23T04:12:17.411Z,428
2018-04-23T04:13:26.881Z,468
2018-04-23T04:14:36.615Z,540
2018-04-23T04:15:46.618Z,636
2018-04-23T04:16:56.790Z,756
2018-04-23T04:18:06.323Z,896
2018-04-23T04:19:16.328Z,1008
2018-04-23T04:20:26.061Z,1128
2018-04-23T04:21:35.808Z,1200
2018-04-23T04:22:45.814Z,1236
2018-04-23T04:23:55.299Z,1280
2018-04-23T04:25:04.500Z,1328
2018-04-23T04:26:14.240Z,1392
2018-04-23T04:27:24.247Z,1452
2018-04-23T04:28:34.265Z,1488
2018-04-23T04:29:44.269Z,1560
2018-04-23T04:30:54.273Z,1676
2018-04-23T04:32:03.746Z,1820
2018-04-23T04:33:13.482Z,1896
2018-04-23T04:34:23.482Z,1920
2018-04-23T04:35:33.474Z,1948
2018-04-23T04:36:43.752Z,1980
2018-04-23T04:37:54.049Z,2016
2018-04-23T04:39:03.787Z,2064
2018-04-23T04:40:13.255Z,2092
2018-04-23T04:41:22.991Z,2116
2018-04-23T04:42:32.732Z,2168
2018-04-23T04:43:42.202Z,2268
2018-04-23T04:44:52.209Z,2360
2018-04-23T04:46:02.213Z,2400
2018-04-23T04:47:11.678Z,2452
2018-04-23T04:48:21.429Z,2524
2018-04-23T04:49:31.166Z,2628
2018-04-23T04:50:40.916Z,2720
2018-04-23T04:51:50.915Z,2816
2018-04-23T04:53:00.670Z,2876
2018-04-23T04:54:10.669Z,2984
2018-04-23T04:55:20.689Z,3104
2018-04-23T04:56:30.707Z,3220
2018-04-23T04:57:40.441Z,3312
2018-04-23T04:58:50.180Z,3364
2018-04-23T05:00:00.181Z,3404
2018-04-23T05:01:09.925Z,3424
2018-04-23T05:02:19.135Z,3448
2018-04-23T05:03:28.604Z,3392
2018-04-23T05:04:38.340Z,3300
2018-04-23T05:05:47.806Z,3132
2018-04-23T05:06:57.887Z,2988
2018-04-23T05:08:07.355Z,2984
2018-04-23T05:09:17.359Z,2948
2018-04-23T05:10:27.104Z,2864
2018-04-23T05:11:37.112Z,2780
2018-04-23T05:12:47.132Z,2824
2018-04-23T05:13:57.136Z,2912
2018-04-23T05:15:06.874Z,2988
2018-04-23T05:16:16.340Z,3036
2018-04-23T05:17:26.350Z,2988
2018-04-23T05:18:36.098Z,2992
2018-04-23T05:19:45.840Z,3028
2018-04-23T05:20:55.849Z,3092
2018-04-23T05:22:05.331Z,3248
2018-04-23T05:23:15.079Z,3436
2018-04-23T05:24:25.094Z,3600
2018-04-23T05:25:35.108Z,3740
2018-04-23T05:26:45.114Z,3840
2018-04-23T05:27:54.590Z,3848
2018-04-23T05:29:04.330Z,3928
2018-04-23T05:30:13.925Z,4100
2018-04-23T05:31:23.671Z,4264
2018-04-23T05:32:33.140Z,4396
2018-04-23T05:33:43.144Z,4532
2018-04-23T05:34:52.615Z,4580
2018-04-23T05:36:02.682Z,4596
2018-04-23T05:37:12.432Z,4572
2018-04-23T05:38:22.183Z,4600
2018-04-23T05:39:31.119Z,4648
2018-04-23T05:40:40.862Z,4700
2018-04-23T05:41:50.599Z,4748
2018-04-23T05:43:00.338Z,4740
2018-04-23T05:44:10.165Z,4740
2018-04-23T05:45:19.968Z,4744
2018-04-23T05:46:29.706Z,4700
2018-04-23T05:47:39.720Z,4508
2018-04-23T05:48:49.192Z,4064
2018-04-23T05:49:58.936Z,3500
2018-04-23T05:51:08.684Z,3096
2018-04-23T05:52:18.681Z,2932
2018-04-23T05:53:28.682Z,3048
2018-04-23T05:54:38.691Z,3240
2018-04-23T05:55:48.462Z,3108
2018-04-23T05:56:58.514Z,2856
2018-04-23T05:58:07.738Z,2660
2018-04-23T05:59:17.741Z,2704
2018-04-23T06:00:27.756Z,3060
2018-04-23T06:01:37.483Z,3580
2018-04-23T06:02:47.233Z,4148
2018-04-23T06:03:56.704Z,4860
2018-04-23T06:05:06.176Z,5152
2018-04-23T06:06:15.655Z,5000
2018-04-23T06:07:25.119Z,4632
2018-04-23T06:08:35.139Z,4264
2018-04-23T06:09:44.608Z,4332
2018-04-23T06:10:53.820Z,4984
2018-04-23T06:12:03.576Z,4900
2018-04-23T06:13:13.045Z,4432
2018-04-23T06:14:22.891Z,3968
2018-04-23T06:15:32.987Z,3568
2018-04-23T06:16:43.001Z,3348
2018-04-23T06:17:52.475Z,3332
2018-04-23T06:19:02.480Z,3152
2018-04-23T06:20:11.682Z,3044
2018-04-23T06:21:21.726Z,3084
2018-04-23T06:22:31.466Z,3252
2018-04-23T06:23:41.210Z,3252
2018-04-23T06:24:51.214Z,3168
2018-04-23T06:26:00.951Z,3384
2018-04-23T06:27:10.697Z,3884
2018-04-23T06:28:20.835Z,4368
2018-04-23T06:29:30.303Z,4580
2018-04-23T06:30:39.777Z,4324
2018-04-23T06:31:49.799Z,4100
2018-04-23T06:32:59.797Z,4056
2018-04-23T06:34:09.949Z,3880
2018-04-23T06:35:19.987Z,3900
2018-04-23T06:36:29.728Z,4112
2018-04-23T06:37:39.738Z,4304
2018-04-23T06:38:49.489Z,4520
2018-04-23T06:39:59.219Z,4800
2018-04-23T06:41:08.419Z,5160
2018-04-23T06:42:17.887Z,5560
2018-04-23T06:43:27.888Z,5964
2018-04-23T06:44:37.361Z,6488
2018-04-23T06:45:47.369Z,7012
2018-04-23T06:46:57.114Z,7332
2018-04-23T06:48:06.866Z,7476
2018-04-23T06:49:16.864Z,7488
2018-04-23T06:50:26.609Z,7328
2018-04-23T06:51:36.345Z,7004
2018-04-23T06:52:45.550Z,6672
2018-04-23T06:53:55.549Z,6404
2018-04-23T06:55:05.015Z,6244
2018-04-23T06:56:14.751Z,6316
2018-04-23T06:57:24.817Z,6576
2018-04-23T06:58:34.835Z,6664
2018-04-23T06:59:44.863Z,6376
2018-04-23T07:00:54.330Z,5676
2018-04-23T07:02:03.802Z,4884
2018-04-23T07:03:13.249Z,4320
2018-04-23T07:04:22.722Z,4504
2018-04-23T07:05:32.465Z,5344
2018-04-23T07:06:42.206Z,6256
2018-04-23T07:07:51.682Z,6572
2018-04-23T07:09:01.680Z,6488
2018-04-23T07:10:11.682Z,6400
2018-04-23T07:11:21.423Z,6212
2018-04-23T07:12:31.158Z,6204
2018-04-23T07:13:40.626Z,6384
2018-04-23T07:14:50.642Z,6448
2018-04-23T07:16:00.388Z,6656
2018-04-23T07:17:09.616Z,6924
2018-04-23T07:18:19.355Z,7084
2018-04-23T07:19:29.133Z,7192
2018-04-23T07:20:38.882Z,7108
2018-04-23T07:21:48.620Z,6760
2018-04-23T07:22:58.626Z,6372
2018-04-23T07:24:08.842Z,6408
2018-04-23T07:25:18.915Z,6820
2018-04-23T07:26:28.392Z,7152
2018-04-23T07:27:37.879Z,7156
2018-04-23T07:28:47.883Z,7316
2018-04-23T07:29:57.084Z,7648
2018-04-23T07:31:06.293Z,7528
2018-04-23T07:32:16.413Z,7144
2018-04-23T07:33:26.153Z,6796
2018-04-23T07:34:35.891Z,6528
2018-04-23T07:35:45.638Z,6452
2018-04-23T07:36:55.653Z,6460
2018-04-23T07:38:05.407Z,6480
2018-04-23T07:39:15.417Z,6700
2018-04-23T07:40:25.160Z,7112
2018-04-23T07:41:34.910Z,7428
2018-04-23T07:42:44.647Z,7640
2018-04-23T07:43:54.385Z,7556
2018-04-23T07:45:04.392Z,7052
2018-04-23T07:46:14.139Z,6460
2018-04-23T07:47:23.877Z,6092
2018-04-23T07:48:33.077Z,5864
2018-04-23T07:49:42.817Z,5736
2018-04-23T07:50:52.551Z,5344
2018-04-23T07:52:02.022Z,4764
2018-04-23T07:53:11.499Z,4404
2018-04-23T07:54:21.416Z,4056
2018-04-23T07:55:30.936Z,3768
2018-04-23T07:56:40.957Z,3796
2018-04-23T07:57:50.985Z,3924
2018-04-23T07:59:00.985Z,4068
2018-04-23T08:00:10.992Z,4164
2018-04-23T08:01:20.786Z,4344
2018-04-23T08:02:30.802Z,4556
2018-04-23T08:03:40.276Z,4828
2018-04-23T08:04:50.022Z,4864
2018-04-23T08:05:59.768Z,4836
2018-04-23T08:07:09.525Z,4972
2018-04-23T08:08:19.536Z,5216
2018-04-23T08:09:29.004Z,5492
2018-04-23T08:10:39.024Z,5424
2018-04-23T08:11:49.028Z,5084
2018-04-23T08:12:58.507Z,4644
2018-04-23T08:14:07.985Z,4268
2018-04-23T08:15:18.080Z,3992
2018-04-23T08:16:28.088Z,3644
2018-04-23T08:17:38.100Z,3380
2018-04-23T08:18:47.846Z,3556
2018-04-23T08:19:57.858Z,3784
2018-04-23T08:21:07.856Z,3900
2018-04-23T08:22:17.595Z,4012
2018-04-23T08:23:27.390Z,4140
2018-04-23T08:24:37.455Z,4080
2018-04-23T08:25:46.930Z,4100
2018-04-23T08:26:56.416Z,4288
2018-04-23T08:28:06.157Z,4412
2018-04-23T08:29:15.893Z,4396
2018-04-23T08:30:26.004Z,4216
2018-04-23T08:31:35.477Z,3980
2018-04-23T08:32:45.485Z,3784
2018-04-23T08:33:55.498Z,3572
2018-04-23T08:35:05.277Z,3128
2018-04-23T08:36:15.292Z,2848
2018-04-23T08:37:25.304Z,2964
2018-04-23T08:38:35.365Z,2988
2018-04-23T08:39:45.112Z,2936
2018-04-23T08:40:55.112Z,2864
2018-04-23T08:42:05.120Z,2752
2018-04-23T08:43:14.857Z,2672
2018-04-23T08:44:24.601Z,2500
2018-04-23T08:45:34.613Z,2420
2018-04-23T08:46:44.086Z,2444
2018-04-23T08:47:53.881Z,2588
2018-04-23T08:49:03.802Z,2744
2018-04-23T08:50:13.804Z,2844
2018-04-23T08:51:23.545Z,3056
2018-04-23T08:52:33.558Z,3340
2018-04-23T08:53:43.572Z,3440
2018-04-23T08:54:53.040Z,3420
2018-04-23T08:56:02.788Z,3348
2018-04-23T08:57:12.522Z,3296
2018-04-23T08:58:22.564Z,3384
2018-04-23T08:59:32.562Z,3652
2018-04-23T09:00:42.291Z,3868
2018-04-23T09:01:52.041Z,4108
2018-04-23T09:03:01.781Z,4444
2018-04-23T09:04:11.535Z,4636
2018-04-23T09:05:21.273Z,4780
2018-04-23T09:06:31.013Z,4792
2018-04-23T09:07:41.019Z,4732
2018-04-23T09:08:50.776Z,4572
2018-04-23T09:10:00.780Z,4608
2018-04-23T09:11:10.522Z,4640
2018-04-23T09:12:20.259Z,4436
2018-04-23T09:13:30.267Z,4160
2018-04-23T09:14:40.019Z,3948
2018-04-23T09:15:49.755Z,3652
2018-04-23T09:16:59.497Z,3436
2018-04-23T09:18:09.252Z,3312
2018-04-23T09:19:18.999Z,3320
2018-04-23T09:20:29.002Z,3300
2018-04-23T09:21:38.737Z,3224
2018-04-23T09:22:48.794Z,3136
2018-04-23T09:23:58.810Z,3076
2018-04-23T09:25:08.549Z,2964
2018-04-23T09:26:18.310Z,2776
2018-04-23T09:27:28.322Z,2580
2018-04-23T09:28:37.888Z,2516
2018-04-23T09:29:47.630Z,2556
2018-04-23T09:30:57.379Z,2616
2018-04-23T09:32:07.120Z,2664
2018-04-23T09:33:17.126Z,2764
2018-04-23T09:34:27.143Z,2884
2018-04-23T09:35:36.882Z,2860
2018-04-23T09:36:46.368Z,2976
2018-04-23T09:37:55.836Z,3108
2018-04-23T09:39:05.426Z,3012
2018-04-23T09:40:15.424Z,2788
2018-04-23T09:41:24.913Z,2532
2018-04-23T09:42:34.653Z,2332
2018-04-23T09:43:44.127Z,2428
2018-04-23T09:44:53.864Z,2444
2018-04-23T09:46:03.601Z,2408
2018-04-23T09:47:13.339Z,2252
2018-04-23T09:48:23.358Z,2196
2018-04-23T09:49:33.101Z,2280
2018-04-23T09:50:43.108Z,2408
2018-04-23T09:51:53.120Z,2584
2018-04-23T09:53:02.588Z,2740
2018-04-23T09:54:12.076Z,2924
2018-04-23T09:55:22.082Z,2968
2018-04-23T09:56:32.101Z,2936
2018-04-23T09:57:41.568Z,2932
2018-04-23T09:58:51.577Z,3004
2018-04-23T10:00:01.321Z,3104
2018-04-23T10:01:11.328Z,3152
2018-04-23T10:02:21.335Z,3148
2018-04-23T10:03:30.799Z,2956
2018-04-23T10:04:40.003Z,2836
2018-04-23T10:05:49.740Z,2940
2018-04-23T10:06:59.748Z,3240
2018-04-23T10:08:09.479Z,4100
2018-04-23T10:09:19.483Z,5100
2018-04-23T10:10:29.492Z,5396
2018-04-23T10:11:39.499Z,5108
2018-04-23T10:12:49.511Z,4456
2018-04-23T10:13:59.525Z,4036
2018-04-23T10:15:09.268Z,4076
2018-04-23T10:16:19.278Z,4096
2018-04-23T10:17:29.278Z,4200
2018-04-23T10:18:39.280Z,4640
2018-04-23T10:19:49.021Z,4872
2018-04-23T10:20:59.128Z,4776
2018-04-23T10:22:08.607Z,4512
2018-04-23T10:23:18.073Z,4372
2018-04-23T10:24:27.836Z,4540
2018-04-23T10:25:37.574Z,4512
2018-04-23T10:26:47.328Z,4348
2018-04-23T10:27:57.090Z,4676
2018-04-23T10:29:06.880Z,5220
2018-04-23T10:30:16.882Z,5300
2018-04-23T10:31:27.040Z,5332
2018-04-23T10:32:36.672Z,5324
2018-04-23T10:33:46.671Z,5168
2018-04-23T10:34:56.143Z,5096
2018-04-23T10:36:06.151Z,4900
2018-04-23T10:37:15.908Z,5056
2018-04-23T10:38:25.649Z,5544
2018-04-23T10:39:35.119Z,5572
2018-04-23T10:40:44.860Z,4932
2018-04-23T10:41:54.331Z,4496
2018-04-23T10:43:04.085Z,4332
2018-04-23T10:44:14.091Z,4364
2018-04-23T10:45:24.241Z,4856
2018-04-23T10:46:34.064Z,4968
2018-04-23T10:47:43.809Z,4740
2018-04-23T10:48:53.551Z,4440
2018-04-23T10:50:03.287Z,4092
2018-04-23T10:51:13.218Z,3984
2018-04-23T10:52:22.696Z,4332
2018-04-23T10:53:32.448Z,4156
2018-04-23T10:54:42.480Z,3576
2018-04-23T10:55:52.489Z,3612
2018-04-23T10:57:02.225Z,3680
2018-04-23T10:58:11.970Z,3808
2018-04-23T10:59:21.972Z,4124
2018-04-23T11:00:31.719Z,4452
2018-04-23T11:01:41.724Z,4892
2018-04-23T11:02:51.467Z,5132
2018-04-23T11:04:01.467Z,5348
2018-04-23T11:05:11.474Z,5524
2018-04-23T11:06:21.211Z,5864
2018-04-23T11:07:31.210Z,6064
2018-04-23T11:08:41.216Z,5712
2018-04-23T11:09:51.288Z,5252
2018-04-23T11:11:01.039Z,5144
2018-04-23T11:12:10.515Z,5200
2018-04-23T11:13:20.581Z,5328
2018-04-23T11:14:30.318Z,5404
2018-04-23T11:15:40.326Z,5564
2018-04-23T11:16:50.079Z,5360
2018-04-23T11:17:59.563Z,5312
2018-04-23T11:19:09.304Z,5096
2018-04-23T11:20:19.302Z,4820
2018-04-23T11:21:29.309Z,4792
2018-04-23T11:22:39.043Z,5024
2018-04-23T11:23:48.780Z,5172
2018-04-23T11:24:58.830Z,5840
2018-04-23T11:26:08.573Z,6516
2018-04-23T11:27:18.054Z,6704
2018-04-23T11:28:28.050Z,5296
2018-04-23T11:29:37.795Z,4856
2018-04-23T11:30:47.638Z,4984
2018-04-23T11:31:57.377Z,5044
2018-04-23T11:33:07.120Z,4704
2018-04-23T11:34:16.867Z,4536
2018-04-23T11:35:26.625Z,4908
2018-04-23T11:36:36.632Z,5892
2018-04-23T11:37:46.101Z,6496
2018-04-23T11:38:55.960Z,5760
2018-04-23T11:40:05.423Z,5644
2018-04-23T11:41:15.172Z,5604
2018-04-23T11:42:24.913Z,5504
2018-04-23T11:43:34.930Z,5540
2018-04-23T11:44:44.683Z,5696
2018-04-23T11:45:54.689Z,5968
2018-04-23T11:47:04.444Z,6348
2018-04-23T11:48:14.196Z,7104
2018-04-23T11:49:24.240Z,8000
2018-04-23T11:50:33.720Z,8528
2018-04-23T11:51:43.722Z,7880
2018-04-23T11:52:53.735Z,7568
2018-04-23T11:54:03.556Z,7556
2018-04-23T11:55:12.761Z,7316
2018-04-23T11:56:22.502Z,6992
2018-04-23T11:57:32.517Z,6964
2018-04-23T11:58:42.526Z,6896
2018-04-23T11:59:52.269Z,6588
2018-04-23T12:01:02.295Z,6100
2018-04-23T12:02:12.035Z,5992
2018-04-23T12:03:22.038Z,5800
2018-04-23T12:04:31.890Z,5764
2018-04-23T12:05:41.579Z,5936
2018-04-23T12:06:51.334Z,6032
2018-04-23T12:08:01.074Z,6420
2018-04-23T12:09:10.808Z,6588
2018-04-23T12:10:20.816Z,6260
2018-04-23T12:11:30.557Z,6000
2018-04-23T12:12:40.568Z,6544
2018-04-23T12:13:50.299Z,6660
2018-04-23T12:15:00.309Z,6816
2018-04-23T12:16:09.911Z,6852
2018-04-23T12:17:19.985Z,7416
2018-04-23T12:18:29.727Z,7300
2018-04-23T12:19:39.463Z,7260
2018-04-23T12:20:48.934Z,7532
2018-04-23T12:21:58.938Z,7928
2018-04-23T12:23:08.775Z,8812
2018-04-23T12:24:18.253Z,9244
2018-04-23T12:25:28.256Z,9000
2018-04-23T12:26:38.271Z,9188
2018-04-23T12:27:47.752Z,9128
2018-04-23T12:28:57.220Z,8444
2018-04-23T12:30:07.234Z,7760
2018-04-23T12:31:16.722Z,7032
2018-04-23T12:32:26.494Z,7128
2018-04-23T12:33:36.238Z,6964
2018-04-23T12:34:45.979Z,6904
2018-04-23T12:35:55.453Z,7624
2018-04-23T12:37:05.197Z,9000
2018-04-23T12:38:14.950Z,8948
2018-04-23T12:39:24.959Z,9008
2018-04-23T12:40:34.698Z,9308
2018-04-23T12:41:44.722Z,8824
2018-04-23T12:42:54.463Z,8120
2018-04-23T12:44:04.203Z,7544
2018-04-23T12:45:13.673Z,7384
2018-04-23T12:46:23.645Z,7628
2018-04-23T12:47:33.389Z,7960
2018-04-23T12:48:43.395Z,8600
2018-04-23T12:49:52.872Z,8788
2018-04-23T12:51:02.452Z,8612
2018-04-23T12:52:12.549Z,8776
2018-04-23T12:53:22.303Z,8420
2018-04-23T12:54:32.324Z,7416
2018-04-23T12:55:42.063Z,7096
2018-04-23T12:56:51.803Z,7288
2018-04-23T12:58:01.279Z,7196
2018-04-23T12:59:10.756Z,6780
2018-04-23T13:00:20.499Z,6808
2018-04-23T13:01:30.243Z,6764
2018-04-23T13:02:40.260Z,6448
2018-04-23T13:03:50.281Z,6412
2018-04-23T13:05:00.290Z,6520
2018-04-23T13:06:09.497Z,6364
2018-04-23T13:07:19.507Z,6076
2018-04-23T13:08:29.295Z,5868
2018-04-23T13:09:39.311Z,5976
2018-04-23T13:10:49.323Z,6248
2018-04-23T13:11:59.074Z,6320
2018-04-23T13:13:08.816Z,6224
2018-04-23T13:14:18.300Z,5752
2018-04-23T13:15:28.031Z,5648
2018-04-23T13:16:37.779Z,6092
2018-04-23T13:17:47.779Z,6160
2018-04-23T13:18:57.523Z,5960
2018-04-23T13:20:07.047Z,5856
2018-04-23T13:21:17.051Z,5988
2018-04-23T13:22:27.063Z,6136
2018-04-23T13:23:36.810Z,6068
2018-04-23T13:24:46.547Z,6036
2018-04-23T13:25:56.030Z,6092
2018-04-23T13:27:05.881Z,6440
2018-04-23T13:28:15.885Z,6936
2018-04-23T13:29:25.627Z,7080
2018-04-23T13:30:35.143Z,6680
2018-04-23T13:31:45.154Z,6476
2018-04-23T13:32:54.896Z,6264
2018-04-23T13:34:04.374Z,5824
2018-04-23T13:35:14.114Z,5920
2018-04-23T13:36:24.174Z,6596
2018-04-23T13:37:34.180Z,6920
2018-04-23T13:38:44.247Z,6480
2018-04-23T13:39:54.361Z,6436
2018-04-23T13:41:03.830Z,6164
2018-04-23T13:42:13.590Z,5900
2018-04-23T13:43:23.334Z,5916
2018-04-23T13:44:33.342Z,6724
2018-04-23T13:45:43.353Z,6528
2018-04-23T13:46:53.365Z,6116
2018-04-23T13:48:03.111Z,5612
2018-04-23T13:49:12.860Z,5020
2018-04-23T13:50:22.943Z,5220
2018-04-23T13:51:32.427Z,5340
2018-04-23T13:52:42.431Z,6240
2018-04-23T13:53:52.451Z,7220
2018-04-23T13:55:02.192Z,8580
2018-04-23T13:56:11.465Z,12308
2018-04-23T13:57:21.608Z,17920
2018-04-23T13:58:31.621Z,22048
2018-04-23T13:59:41.629Z,35200
2018-04-23T14:00:51.379Z,21632
2018-04-23T14:02:01.119Z,15112
2018-04-23T14:03:10.585Z,14244
2018-04-23T14:04:20.059Z,14332
2018-04-23T14:05:29.805Z,12852
2018-04-23T14:06:39.820Z,11820
2018-04-23T14:07:49.827Z,12108
2018-04-23T14:08:59.834Z,13204
2018-04-23T14:10:09.575Z,14616
2018-04-23T14:11:19.591Z,13868
2018-04-23T14:12:29.067Z,12116
2018-04-23T14:13:38.543Z,11936
2018-04-23T14:14:48.021Z,12380
2018-04-23T14:15:58.034Z,16288
2018-04-23T14:17:08.061Z,16588
2018-04-23T14:18:18.069Z,12504
2018-04-23T14:19:27.552Z,9964
2018-04-23T14:20:37.571Z,10888
2018-04-23T14:21:47.583Z,18432
2018-04-23T14:22:57.323Z,18752
2018-04-23T14:24:06.615Z,14284
2018-04-23T14:25:16.138Z,12836
2018-04-23T14:26:25.878Z,10748
2018-04-23T14:27:35.884Z,11952
2018-04-23T14:28:45.886Z,12984
2018-04-23T14:29:55.775Z,12384
2018-04-23T14:31:05.853Z,12612
2018-04-23T14:32:15.604Z,10572
2018-04-23T14:33:25.614Z,9864
2018-04-23T14:34:35.630Z,9932
2018-04-23T14:35:45.377Z,11156
2018-04-23T14:36:55.380Z,12908
2018-04-23T14:38:05.117Z,14596
2018-04-23T14:39:15.126Z,14384
2018-04-23T14:40:25.146Z,16800
2018-04-23T14:41:34.895Z,20832
2018-04-23T14:42:44.898Z,24640
2018-04-23T14:43:54.909Z,27744
2018-04-23T14:45:04.978Z,57216
2018-04-23T14:46:14.983Z,53472
2018-04-23T14:47:24.737Z,78624
2018-04-23T14:48:34.212Z,54656
2018-04-23T14:49:43.691Z,26560
2018-04-23T14:50:53.435Z,24320
2018-04-23T14:52:03.456Z,25248
2018-04-23T14:53:13.411Z,28416
2018-04-23T14:54:23.150Z,23136
2018-04-23T14:55:33.181Z,21408
2018-04-23T14:56:43.194Z,20640
2018-04-23T14:57:53.200Z,49152
2018-04-23T14:59:02.950Z,34944
2018-04-23T15:00:12.425Z,42240
2018-04-23T15:01:22.168Z,84576
2018-04-23T15:02:31.917Z,82240
2018-04-23T15:03:41.661Z,45312
2018-04-23T15:04:51.406Z,25248
2018-04-23T15:06:01.151Z,23456
2018-04-23T15:07:10.900Z,28448
2018-04-23T15:08:20.708Z,25216
2018-04-23T15:09:30.822Z,21792
2018-04-23T15:10:40.834Z,26624
2018-04-23T15:11:50.843Z,41696
2018-04-23T15:13:00.869Z,38368
2018-04-23T15:14:10.613Z,64864
2018-04-23T15:15:20.368Z,58368
2018-04-23T15:16:30.113Z,24096
2018-04-23T15:17:39.593Z,38176
2018-04-23T15:18:49.608Z,38560
2018-04-23T15:19:59.089Z,33792
2018-04-23T15:21:08.301Z,26624
2018-04-23T15:22:18.314Z,16260
2018-04-23T15:23:29.655Z,14480
2018-04-23T15:24:39.404Z,16224
2018-04-23T15:25:49.425Z,19488
2018-04-23T15:26:59.233Z,36064
2018-04-23T15:28:08.713Z,81376
2018-04-23T15:29:18.746Z,30816
2018-04-23T15:30:28.771Z,63264
2018-04-23T15:31:38.520Z,22208
2018-04-23T15:32:48.281Z,34976
2018-04-23T15:33:58.026Z,22240
2018-04-23T15:35:07.780Z,18112
2018-04-23T15:36:17.875Z,14892
2018-04-23T15:37:27.614Z,18208
2018-04-23T15:38:37.355Z,43648
2018-04-23T15:39:47.365Z,45760
2018-04-23T15:40:57.456Z,32256
2018-04-23T15:42:07.484Z,21344
2018-04-23T15:43:17.244Z,36160
2018-04-23T15:44:26.991Z,40544
2018-04-23T15:45:36.736Z,31584
2018-04-23T15:46:46.748Z,16300
2018-04-23T15:47:56.491Z,12140
2018-04-23T15:49:05.702Z,15532
2018-04-23T15:50:14.913Z,20224